createdAt,value
2023-02-17T00:01:39.043Z,99782.16
2023-02-17T00:04:07.775Z,99784.13
2023-02-17T00:06:36.222Z,99771.94
2023-02-17T00:09:04.549Z,99776.44
2023-02-17T00:11:34.933Z,99783.03
2023-02-17T00:14:03.202Z,99773.59
2023-02-17T00:16:31.697Z,99781.22
2023-02-17T00:19:01.379Z,99780.75
2023-02-17T00:21:31.453Z,99784.38
2023-02-17T00:24:00.362Z,99774.41
2023-02-17T00:26:28.901Z,99778.47
2023-02-17T00:29:00.213Z,99768.63
2023-02-17T00:31:28.688Z,99764.44
2023-02-17T00:33:57.636Z,99773.13
2023-02-17T00:36:28.703Z,99776.41
2023-02-17T00:38:58.591Z,99771.28
2023-02-17T00:41:27.634Z,99780.19
2023-02-17T00:43:56.086Z,99775.38
2023-02-17T00:46:27.015Z,99774.22
2023-02-17T00:48:55.363Z,99780.28
2023-02-17T00:51:23.990Z,99780.13
2023-02-17T00:53:52.915Z,99783.78
2023-02-17T00:56:21.021Z,99779.97
2023-02-17T00:58:49.197Z,99780.19
2023-02-17T01:01:17.431Z,99778.75
2023-02-17T01:03:47.596Z,99781.59
2023-02-17T01:06:23.000Z,99783.84
2023-02-17T01:08:51.751Z,99775.22
2023-02-17T01:11:20.742Z,99777.28
2023-02-17T01:13:49.147Z,99770.75
2023-02-17T01:16:19.844Z,99773.09
2023-02-17T01:18:49.564Z,99773.44
2023-02-17T01:21:19.113Z,99770.00
2023-02-17T01:23:47.437Z,99762.16
2023-02-17T01:26:16.672Z,99764.78
2023-02-17T01:28:45.253Z,99764.63
2023-02-17T01:31:14.523Z,99745.41
2023-02-17T01:33:43.205Z,99741.94
2023-02-17T01:36:15.626Z,99741.25
2023-02-17T01:38:44.263Z,99732.13
2023-02-17T01:41:14.184Z,99727.06
2023-02-17T01:43:43.101Z,99718.09
2023-02-17T01:46:11.624Z,99711.84
2023-02-17T01:48:44.036Z,99715.19
2023-02-17T01:51:20.700Z,99705.88
2023-02-17T01:53:54.811Z,99705.38
2023-02-17T01:56:24.741Z,99698.56
2023-02-17T01:58:59.144Z,99694.16
2023-02-17T02:01:28.934Z,99682.81
2023-02-17T02:03:57.393Z,99689.75
2023-02-17T02:06:30.319Z,99681.44
2023-02-17T02:09:04.651Z,99686.81
2023-02-17T02:11:33.388Z,99682.28
2023-02-17T02:14:04.617Z,99691.16
2023-02-17T02:16:43.398Z,99681.56
2023-02-17T02:19:38.976Z,99676.09
2023-02-17T02:22:40.505Z,99673.72
2023-02-17T02:25:27.822Z,99671.28
2023-02-17T02:28:07.099Z,99666.78
2023-02-17T02:31:02.993Z,99653.00
2023-02-17T02:33:38.507Z,99659.09
2023-02-17T02:36:13.268Z,99654.63
2023-02-17T02:38:44.978Z,99659.03
2023-02-17T02:41:18.374Z,99656.38
2023-02-17T02:43:47.064Z,99650.06
2023-02-17T02:46:15.394Z,99649.47
2023-02-17T02:48:46.620Z,99639.59
2023-02-17T02:51:39.162Z,99632.25
2023-02-17T02:54:19.037Z,99629.84
2023-02-17T02:57:05.018Z,99630.72
2023-02-17T02:59:45.969Z,99631.69
2023-02-17T03:02:25.120Z,99630.91
2023-02-17T03:05:01.338Z,99628.22
2023-02-17T03:07:33.533Z,99638.97
2023-02-17T03:10:06.700Z,99631.25
2023-02-17T03:12:35.768Z,99638.22
2023-02-17T03:15:07.592Z,99638.97
2023-02-17T03:17:35.618Z,99635.34
2023-02-17T03:20:07.635Z,99635.03
2023-02-17T03:22:40.668Z,99634.97
2023-02-17T03:25:09.481Z,99627.06
2023-02-17T03:27:38.438Z,99632.25
2023-02-17T03:30:07.594Z,99632.56
2023-02-17T03:32:36.206Z,99629.03
2023-02-17T03:35:09.053Z,99635.22
2023-02-17T03:37:37.782Z,99631.25
2023-02-17T03:40:07.711Z,99637.00
2023-02-17T03:42:36.034Z,99637.66
2023-02-17T03:45:05.478Z,99633.84
2023-02-17T03:47:34.152Z,99625.66
2023-02-17T03:50:02.593Z,99638.84
2023-02-17T03:52:34.217Z,99636.47
2023-02-17T03:55:03.061Z,99629.41
2023-02-17T03:57:32.086Z,99643.03
2023-02-17T04:00:00.533Z,99631.63
2023-02-17T04:02:29.465Z,99637.03
2023-02-17T04:04:57.829Z,99642.47
2023-02-17T04:07:25.982Z,99643.47
2023-02-17T04:09:55.725Z,99641.13
2023-02-17T04:12:23.838Z,99642.41
2023-02-17T04:14:52.033Z,99645.41
2023-02-17T04:17:19.998Z,99642.00
2023-02-17T04:19:48.314Z,99639.16
2023-02-17T04:22:16.366Z,99636.44
2023-02-17T04:24:44.966Z,99638.09
2023-02-17T04:27:14.674Z,99645.59
2023-02-17T04:29:43.245Z,99633.56
2023-02-17T04:32:11.232Z,99637.13
2023-02-17T04:34:39.775Z,99630.16
2023-02-17T04:37:08.723Z,99627.25
2023-02-17T04:39:36.951Z,99628.97
2023-02-17T04:42:05.280Z,99617.63
2023-02-17T04:44:35.246Z,99628.38
2023-02-17T04:47:03.496Z,99623.09
2023-02-17T04:49:31.856Z,99622.50
2023-02-17T04:52:01.119Z,99618.75
2023-02-17T04:54:29.236Z,99618.81
2023-02-17T04:56:57.615Z,99622.78
2023-02-17T04:59:26.059Z,99622.38
2023-02-17T05:01:55.908Z,99613.75
2023-02-17T05:04:25.158Z,99610.84
2023-02-17T05:06:54.283Z,99618.47
2023-02-17T05:09:22.657Z,99621.31
2023-02-17T05:11:51.109Z,99616.81
2023-02-17T05:14:19.279Z,99618.56
2023-02-17T05:16:48.890Z,99618.81
2023-02-17T05:19:19.895Z,99629.22
2023-02-17T05:21:48.022Z,99635.50
2023-02-17T05:24:16.412Z,99640.00
2023-02-17T05:26:44.679Z,99637.50
2023-02-17T05:29:12.868Z,99633.72
2023-02-17T05:31:42.033Z,99637.03
2023-02-17T05:34:12.157Z,99633.56
2023-02-17T05:36:42.143Z,99620.69
2023-02-17T05:39:12.041Z,99623.44
2023-02-17T05:41:40.852Z,99630.31
2023-02-17T05:44:09.322Z,99624.09
2023-02-17T05:46:37.670Z,99625.03
2023-02-17T05:49:06.141Z,99621.66
2023-02-17T05:51:34.393Z,99616.13
2023-02-17T05:54:04.655Z,99618.59
2023-02-17T05:56:33.082Z,99602.72
2023-02-17T05:59:01.692Z,99604.28
2023-02-17T06:01:30.028Z,99601.28
2023-02-17T06:03:58.613Z,99599.50
2023-02-17T06:06:27.021Z,99605.28
2023-02-17T06:08:55.459Z,99608.84
2023-02-17T06:11:27.738Z,99616.25
2023-02-17T06:13:55.910Z,99622.25
2023-02-17T06:16:25.006Z,99620.38
2023-02-17T06:18:53.339Z,99616.63
2023-02-17T06:21:21.692Z,99615.69
2023-02-17T06:23:49.806Z,99605.06
2023-02-17T06:26:19.906Z,99612.28
2023-02-17T06:28:50.050Z,99613.63
2023-02-17T06:31:18.714Z,99608.97
2023-02-17T06:33:46.940Z,99619.31
2023-02-17T06:36:15.362Z,99617.75
2023-02-17T06:38:43.765Z,99622.16
2023-02-17T06:41:13.228Z,99621.03
2023-02-17T06:43:41.634Z,99611.72
2023-02-17T06:46:12.372Z,99608.28
2023-02-17T06:48:40.882Z,99623.47
2023-02-17T06:51:09.250Z,99628.03
2023-02-17T06:53:37.335Z,99614.69
2023-02-17T06:56:06.058Z,99613.09
2023-02-17T06:58:36.491Z,99618.94
2023-02-17T07:01:05.539Z,99618.88
2023-02-17T07:03:35.121Z,99624.69
2023-02-17T07:06:03.601Z,99624.53
2023-02-17T07:08:34.056Z,99622.34
2023-02-17T07:11:06.287Z,99618.00
2023-02-17T07:13:34.710Z,99606.56
2023-02-17T07:16:03.149Z,99609.69
2023-02-17T07:18:31.993Z,99599.31
2023-02-17T07:21:01.655Z,99592.59
2023-02-17T07:23:30.094Z,99594.41
2023-02-17T07:25:58.703Z,99598.16
2023-02-17T07:28:27.151Z,99601.94
2023-02-17T07:30:55.183Z,99599.16
2023-02-17T07:33:23.425Z,99595.44
2023-02-17T07:35:51.515Z,99592.31
2023-02-17T07:38:21.408Z,99597.84
2023-02-17T07:40:50.057Z,99590.22
2023-02-17T07:43:18.400Z,99605.25
2023-02-17T07:45:46.505Z,99596.50
2023-02-17T07:48:14.638Z,99580.25
2023-02-17T07:50:42.665Z,99587.03
2023-02-17T07:53:10.812Z,99589.06
2023-02-17T07:55:40.598Z,99595.56
2023-02-17T07:58:09.032Z,99597.16
2023-02-17T08:00:38.020Z,99617.19
2023-02-17T08:03:06.615Z,99596.97
2023-02-17T08:05:34.932Z,99609.63
2023-02-17T08:08:21.197Z,99598.63
2023-02-17T08:11:08.618Z,99599.38
2023-02-17T08:13:37.350Z,99594.59
2023-02-17T08:16:06.254Z,99586.78
2023-02-17T08:18:36.795Z,99603.31
2023-02-17T08:21:07.618Z,99608.72
2023-02-17T08:23:35.853Z,99614.84
2023-02-17T08:26:06.255Z,99600.28
2023-02-17T08:28:35.051Z,99605.41
2023-02-17T08:31:04.169Z,99600.72
2023-02-17T08:33:32.726Z,99609.75
2023-02-17T08:36:09.905Z,99596.53
2023-02-17T08:38:38.167Z,99604.66
2023-02-17T08:41:15.511Z,99601.66
2023-02-17T08:43:44.381Z,99607.44
2023-02-17T08:46:18.051Z,99598.53
2023-02-17T08:48:51.192Z,99604.25
2023-02-17T08:51:26.138Z,99604.94
2023-02-17T08:53:57.084Z,99607.88
2023-02-17T08:56:29.776Z,99610.94
2023-02-17T08:58:58.475Z,99604.88
2023-02-17T09:01:32.719Z,99605.66
2023-02-17T09:04:02.954Z,99614.81
2023-02-17T09:06:35.848Z,99612.16
2023-02-17T09:09:05.332Z,99611.75
2023-02-17T09:11:34.972Z,99609.47
2023-02-17T09:14:03.058Z,99599.31
2023-02-17T09:16:32.257Z,99597.78
2023-02-17T09:19:00.558Z,99611.44
2023-02-17T09:21:31.970Z,99613.25
2023-02-17T09:24:00.128Z,99611.91
2023-02-17T09:26:28.585Z,99613.34
2023-02-17T09:29:01.488Z,99618.63
2023-02-17T09:31:31.341Z,99619.56
2023-02-17T09:34:00.035Z,99616.75
2023-02-17T09:36:30.841Z,99618.72
2023-02-17T09:38:59.330Z,99608.91
2023-02-17T09:41:39.570Z,99618.19
2023-02-17T09:44:21.096Z,99616.31
2023-02-17T09:47:02.133Z,99612.75
2023-02-17T09:49:38.273Z,99610.63
2023-02-17T09:52:14.417Z,99627.06
2023-02-17T09:54:53.838Z,99628.59
2023-02-17T09:57:27.072Z,99621.13
2023-02-17T10:00:01.468Z,99630.91
2023-02-17T10:02:37.195Z,99622.34
2023-02-17T10:05:09.133Z,99623.06
2023-02-17T10:07:43.447Z,99630.16
2023-02-17T10:10:15.802Z,99634.31
2023-02-17T10:12:49.907Z,99646.78
2023-02-17T10:15:26.558Z,99639.34
2023-02-17T10:18:00.970Z,99642.19
2023-02-17T10:20:34.264Z,99630.03
2023-02-17T10:23:08.435Z,99639.06
2023-02-17T10:25:52.826Z,99628.75
2023-02-17T10:28:29.372Z,99638.63
2023-02-17T10:31:05.494Z,99639.97
2023-02-17T10:33:38.141Z,99615.81
2023-02-17T10:36:18.174Z,99620.56
2023-02-17T10:38:52.591Z,99612.31
2023-02-17T10:41:28.171Z,99613.09
2023-02-17T10:43:57.573Z,99607.69
2023-02-17T10:46:32.433Z,99616.03
2023-02-17T10:49:06.316Z,99607.44
2023-02-17T10:51:35.517Z,99598.34
2023-02-17T10:54:12.429Z,99615.22
2023-02-17T10:56:46.649Z,99603.75
2023-02-17T10:59:22.524Z,99604.59
2023-02-17T11:01:52.718Z,99595.69
2023-02-17T11:04:21.041Z,99608.19
2023-02-17T11:06:53.014Z,99590.25
2023-02-17T11:09:28.905Z,99587.16
2023-02-17T11:12:01.670Z,99581.53
2023-02-17T11:14:32.133Z,99597.84
2023-02-17T11:17:04.620Z,99590.16
2023-02-17T11:19:35.736Z,99576.00
2023-02-17T11:22:07.564Z,99578.28
2023-02-17T11:24:37.067Z,99567.47
2023-02-17T11:27:10.153Z,99569.94
2023-02-17T11:29:39.084Z,99565.38
2023-02-17T11:32:10.716Z,99555.84
2023-02-17T11:34:41.511Z,99554.25
2023-02-17T11:37:23.871Z,99553.97
2023-02-17T11:39:54.795Z,99543.91
2023-02-17T11:42:26.712Z,99550.66
2023-02-17T11:44:58.040Z,99534.16
2023-02-17T11:47:36.799Z,99540.38
2023-02-17T11:50:35.264Z,99526.78
2023-02-17T11:53:20.414Z,99529.75
2023-02-17T11:56:02.240Z,99524.31
2023-02-17T11:58:43.732Z,99518.25
2023-02-17T12:01:24.524Z,99515.19
2023-02-17T12:04:47.324Z,99499.88
2023-02-17T12:07:49.097Z,99484.44
2023-02-17T12:10:27.603Z,99489.78
2023-02-17T12:13:15.916Z,99482.44
2023-02-17T12:16:06.688Z,99470.56
2023-02-17T12:18:50.051Z,99471.59
2023-02-17T12:21:30.756Z,99463.59
2023-02-17T12:24:20.278Z,99459.00
2023-02-17T12:26:51.629Z,99457.09
2023-02-17T12:29:32.449Z,99445.09
2023-02-17T12:32:21.919Z,99456.88
2023-02-17T12:34:57.299Z,99458.91
2023-02-17T12:37:32.192Z,99441.94
2023-02-17T12:40:05.119Z,99426.41
2023-02-17T12:42:36.896Z,99442.72
2023-02-17T12:45:07.820Z,99429.28
2023-02-17T12:47:41.980Z,99446.09
2023-02-17T12:50:21.548Z,99442.72
2023-02-17T12:52:55.226Z,99430.25
2023-02-17T12:55:27.705Z,99429.28
2023-02-17T12:58:00.839Z,99432.09
2023-02-17T13:00:34.245Z,99436.78
2023-02-17T13:03:05.275Z,99433.56
2023-02-17T13:05:40.851Z,99437.44
2023-02-17T13:08:16.964Z,99433.69
2023-02-17T13:10:45.166Z,99422.13
2023-02-17T13:13:15.667Z,99426.09
2023-02-17T13:15:46.908Z,99411.28
2023-02-17T13:18:28.119Z,99417.38
2023-02-17T13:21:01.326Z,99411.31
2023-02-17T13:23:40.382Z,99402.91
2023-02-17T13:26:37.932Z,99404.44
2023-02-17T13:29:35.919Z,99404.38
2023-02-17T13:32:06.347Z,99415.84
2023-02-17T13:34:37.571Z,99420.88
2023-02-17T13:37:19.075Z,99419.59
2023-02-17T13:39:49.192Z,99409.81
2023-02-17T13:42:45.542Z,99402.75
2023-02-17T13:45:19.495Z,99381.28
2023-02-17T13:47:50.557Z,99384.44
2023-02-17T13:50:32.309Z,99390.16
2023-02-17T13:53:01.695Z,99385.56
2023-02-17T13:55:32.435Z,99388.22
2023-02-17T13:58:01.224Z,99365.72
2023-02-17T14:00:31.764Z,99368.91
2023-02-17T14:03:07.367Z,99367.09
2023-02-17T14:05:42.003Z,99386.75
2023-02-17T14:08:18.564Z,99379.59
2023-02-17T14:10:48.910Z,99374.81
2023-02-17T14:13:18.200Z,99411.94
2023-02-17T14:15:55.263Z,99377.16
2023-02-17T14:18:31.970Z,99379.59
2023-02-17T14:21:06.582Z,99405.09
2023-02-17T14:23:46.621Z,99377.31
2023-02-17T14:26:29.139Z,99377.50
2023-02-17T14:28:59.378Z,99384.81
2023-02-17T14:31:28.795Z,99376.47
2023-02-17T14:34:00.468Z,99384.28
2023-02-17T14:36:35.284Z,99385.59
2023-02-17T14:39:07.022Z,99396.81
2023-02-17T14:41:37.046Z,99374.78
2023-02-17T14:44:06.571Z,99381.78
2023-02-17T14:46:40.094Z,99364.34
2023-02-17T14:49:08.501Z,99398.25
2023-02-17T14:51:38.823Z,99388.56
2023-02-17T14:54:15.501Z,99378.75
2023-02-17T14:56:47.911Z,99355.97
2023-02-17T14:59:16.244Z,99382.13
2023-02-17T15:01:44.774Z,99382.25
2023-02-17T15:04:13.429Z,99387.69
2023-02-17T15:06:44.584Z,99376.97
2023-02-17T15:09:18.386Z,99385.81
2023-02-17T15:11:49.600Z,99387.50
2023-02-17T15:14:21.277Z,99362.66
2023-02-17T15:16:50.200Z,99357.34
2023-02-17T15:19:19.254Z,99360.69
2023-02-17T15:21:52.965Z,99367.31
2023-02-17T15:24:29.212Z,99393.34
2023-02-17T15:26:59.663Z,99383.78
2023-02-17T15:29:28.862Z,99373.56
2023-02-17T15:31:59.190Z,99419.97
2023-02-17T15:34:31.108Z,99392.78
2023-02-17T15:37:00.419Z,99396.91
2023-02-17T15:39:28.819Z,99397.59
2023-02-17T15:42:04.589Z,99387.44
2023-02-17T15:44:41.453Z,99398.31
2023-02-17T15:47:15.303Z,99386.31
2023-02-17T15:49:44.439Z,99388.41
2023-02-17T15:52:13.946Z,99388.47
2023-02-17T15:54:44.083Z,99383.78
2023-02-17T15:57:22.178Z,99376.97
2023-02-17T15:59:50.808Z,99384.56
2023-02-17T16:02:23.501Z,99380.25
2023-02-17T16:04:53.116Z,99385.53
2023-02-17T16:07:21.166Z,99372.44
2023-02-17T16:09:49.714Z,99381.03
2023-02-17T16:12:27.422Z,99397.25
2023-02-17T16:14:56.951Z,99386.66
2023-02-17T16:17:25.756Z,99404.50
2023-02-17T16:19:54.137Z,99387.91
2023-02-17T16:22:22.717Z,99399.84
2023-02-17T16:24:51.114Z,99398.66
2023-02-17T16:27:21.416Z,99386.88
2023-02-17T16:29:50.079Z,99389.94
2023-02-17T16:32:18.281Z,99389.97
2023-02-17T16:34:46.814Z,99387.50
2023-02-17T16:37:18.613Z,99396.84
2023-02-17T16:39:47.560Z,99399.09
2023-02-17T16:42:16.055Z,99418.81
2023-02-17T16:44:45.780Z,99413.91
2023-02-17T16:47:20.335Z,99412.94
2023-02-17T16:49:50.643Z,99418.72
2023-02-17T16:52:25.281Z,99406.25
2023-02-17T16:54:54.058Z,99423.72
2023-02-17T16:57:23.386Z,99412.13
2023-02-17T16:59:53.194Z,99424.56
2023-02-17T17:02:22.291Z,99423.06
2023-02-17T17:04:51.717Z,99432.25
2023-02-17T17:07:20.242Z,99431.06
2023-02-17T17:10:14.416Z,99433.94
2023-02-17T17:12:36.793Z,99448.47
2023-02-17T17:15:07.458Z,99437.81
2023-02-17T17:17:40.938Z,99454.09
2023-02-17T17:20:13.962Z,99452.50
2023-02-17T17:22:42.553Z,99457.50
2023-02-17T17:25:12.514Z,99464.13
2023-02-17T17:27:41.851Z,99479.25
2023-02-17T17:30:18.071Z,99480.09
2023-02-17T17:32:46.321Z,99497.91
2023-02-17T17:35:15.920Z,99479.47
2023-02-17T17:37:44.558Z,99512.03
2023-02-17T17:40:18.815Z,99518.19
2023-02-17T17:42:47.924Z,99529.84
2023-02-17T17:45:18.055Z,99531.38
2023-02-17T17:47:46.750Z,99547.00
2023-02-17T17:50:19.295Z,99561.75
2023-02-17T17:52:48.174Z,99580.75
2023-02-17T17:55:16.927Z,99586.38
2023-02-17T17:57:45.419Z,99585.44
2023-02-17T18:00:18.057Z,99599.41
2023-02-17T18:02:49.094Z,99611.78
2023-02-17T18:05:18.071Z,99617.16
2023-02-17T18:07:49.038Z,99632.84
2023-02-17T18:10:17.619Z,99638.84
2023-02-17T18:12:48.985Z,99645.44
2023-02-17T18:15:18.614Z,99650.34
2023-02-17T18:17:49.923Z,99666.00
2023-02-17T18:20:18.502Z,99665.84
2023-02-17T18:22:47.430Z,99679.38
2023-02-17T18:25:15.734Z,99685.69
2023-02-17T18:27:45.776Z,99685.84
2023-02-17T18:30:17.986Z,99689.91
2023-02-17T18:32:46.712Z,99710.31
2023-02-17T18:35:17.214Z,99706.97
2023-02-17T18:37:46.584Z,99719.72
2023-02-17T18:40:18.013Z,99712.97
2023-02-17T18:42:46.820Z,99726.63
2023-02-17T18:45:16.457Z,99726.34
2023-02-17T18:47:45.593Z,99735.56
2023-02-17T18:50:17.117Z,99730.16
2023-02-17T18:52:45.724Z,99715.44
2023-02-17T18:55:14.039Z,99712.69
2023-02-17T18:57:44.954Z,99697.69
2023-02-17T19:00:16.794Z,99704.16
2023-02-17T19:02:45.769Z,99703.97
2023-02-17T19:05:17.678Z,99698.19
2023-02-17T19:07:46.375Z,99699.31
2023-02-17T19:10:15.082Z,99698.28
2023-02-17T19:12:43.272Z,99704.63
2023-02-17T19:15:17.342Z,99704.44
2023-02-17T19:17:48.399Z,99710.03
2023-02-17T19:20:18.596Z,99703.69
2023-02-17T19:22:46.854Z,99691.16
2023-02-17T19:25:15.372Z,99697.69
2023-02-17T19:27:43.818Z,99695.78
2023-02-17T19:30:12.969Z,99693.06
2023-02-17T19:32:41.710Z,99690.41
2023-02-17T19:35:11.750Z,99703.22
2023-02-17T19:37:41.698Z,99689.91
2023-02-17T19:40:10.722Z,99699.00
2023-02-17T19:42:40.576Z,99699.69
2023-02-17T19:45:09.238Z,99697.88
2023-02-17T19:47:37.500Z,99709.44
2023-02-17T19:50:06.571Z,99728.25
2023-02-17T19:52:35.154Z,99720.81
2023-02-17T19:55:05.397Z,99711.44
2023-02-17T19:57:33.762Z,99715.22
2023-02-17T20:00:04.438Z,99720.28
2023-02-17T20:02:33.298Z,99733.06
2023-02-17T20:05:01.779Z,99723.38
2023-02-17T20:07:31.994Z,99729.19
2023-02-17T20:10:00.163Z,99728.03
2023-02-17T20:12:29.946Z,99727.44
2023-02-17T20:15:02.010Z,99725.78
2023-02-17T20:17:30.555Z,99723.69
2023-02-17T20:19:59.685Z,99729.94
2023-02-17T20:22:28.061Z,99728.03
2023-02-17T20:24:56.588Z,99738.75
2023-02-17T20:27:25.074Z,99731.19
2023-02-17T20:29:54.830Z,99727.22
2023-02-17T20:32:23.532Z,99730.34
2023-02-17T20:34:52.776Z,99733.75
2023-02-17T20:37:21.208Z,99725.22
2023-02-17T20:39:49.331Z,99725.88
2023-02-17T20:42:17.380Z,99727.88
2023-02-17T20:44:49.036Z,99730.13
2023-02-17T20:47:19.240Z,99722.00
2023-02-17T20:49:47.781Z,99720.81
2023-02-17T20:52:16.017Z,99719.63
2023-02-17T20:54:44.760Z,99730.81
2023-02-17T20:57:15.550Z,99726.72
2023-02-17T20:59:45.251Z,99729.19
2023-02-17T21:02:13.759Z,99731.19
2023-02-17T21:04:43.658Z,99731.38
2023-02-17T21:07:12.281Z,99731.84
2023-02-17T21:09:40.731Z,99719.72
2023-02-17T21:12:09.159Z,99724.91
2023-02-17T21:14:37.612Z,99742.25
2023-02-17T21:17:06.055Z,99736.41
2023-02-17T21:19:34.270Z,99731.38
2023-02-17T21:22:04.077Z,99731.38
2023-02-17T21:24:32.205Z,99738.56
2023-02-17T21:27:00.426Z,99738.56
2023-02-17T21:29:30.513Z,99739.06
2023-02-17T21:31:58.920Z,99739.50
2023-02-17T21:34:27.276Z,99738.25
2023-02-17T21:36:55.590Z,99746.03
2023-02-17T21:39:25.627Z,99745.22
2023-02-17T21:41:55.369Z,99745.22
2023-02-17T21:44:41.208Z,99755.72
2023-02-17T21:47:10.111Z,99753.31
2023-02-17T21:49:39.401Z,99752.31
2023-02-17T21:52:08.624Z,99760.19
2023-02-17T21:54:39.912Z,99757.94
2023-02-17T21:57:08.385Z,99751.75
2023-02-17T21:59:36.458Z,99756.75
2023-02-17T22:02:04.819Z,99764.03
2023-02-17T22:04:35.070Z,99748.31
2023-02-17T22:07:03.495Z,99754.28
2023-02-17T22:09:32.409Z,99759.78
2023-02-17T22:12:01.923Z,99756.94
2023-02-17T22:14:30.457Z,99762.06
2023-02-17T22:16:59.863Z,99757.84
2023-02-17T22:19:31.345Z,99756.84
2023-02-17T22:21:59.788Z,99757.34
2023-02-17T22:24:28.822Z,99755.88
2023-02-17T22:26:57.806Z,99753.88
2023-02-17T22:29:30.315Z,99754.09
2023-02-17T22:31:58.826Z,99755.69
2023-02-17T22:34:28.875Z,99759.13
2023-02-17T22:36:57.255Z,99751.72
2023-02-17T22:39:25.462Z,99754.47
2023-02-17T22:41:53.904Z,99754.84
2023-02-17T22:44:23.904Z,99757.91
2023-02-17T22:46:53.901Z,99755.03
2023-02-17T22:49:22.492Z,99752.47
2023-02-17T22:51:50.922Z,99745.66
2023-02-17T22:54:19.043Z,99742.16
2023-02-17T22:56:47.463Z,99752.78
2023-02-17T22:59:15.779Z,99758.75
2023-02-17T23:01:47.481Z,99752.47
2023-02-17T23:04:20.941Z,99745.47
2023-02-17T23:06:50.811Z,99754.38
2023-02-17T23:09:20.464Z,99762.34
2023-02-17T23:11:54.242Z,99748.88
2023-02-17T23:14:25.896Z,99746.22
2023-02-17T23:16:56.443Z,99753.97
2023-02-17T23:19:26.250Z,99755.63
2023-02-17T23:21:56.748Z,99751.75
2023-02-17T23:24:26.144Z,99749.03
2023-02-17T23:26:58.373Z,99748.97
2023-02-17T23:29:29.009Z,99751.34
2023-02-17T23:31:57.443Z,99751.94
2023-02-17T23:34:28.321Z,99752.63
2023-02-17T23:36:57.576Z,99752.69
2023-02-17T23:39:26.546Z,99750.03
2023-02-17T23:41:55.169Z,99751.75
2023-02-17T23:44:23.591Z,99752.38
2023-02-17T23:46:54.193Z,99744.75
2023-02-17T23:49:22.476Z,99747.06
2023-02-17T23:51:53.922Z,99748.59
2023-02-17T23:54:22.151Z,99738.66
2023-02-17T23:56:50.810Z,99749.28
2023-02-17T23:59:19.092Z,99747.47
